Terminal Aerodrome Forecast
Issued by NWS

Home | Current Version | Previous Version | Text Only | Print | Product List | Glossary On
Versions: 1 2 3 4 5 6 7 8 9 10 11 12 13 14 15 16 17 18 19 20 21
000
FTUS42 KTBW 020800 AAA
TAFPGD
TAF AMD
KPGD 020805Z 0208/0306 VRB04KT 2SM BR SCT005 SCT012
      TEMPO 0209/0213 1/2SM FG BKN010
     FM021400 09006KT P6SM SCT025
     FM022000 04007KT P6SM SCT040
     FM030100 VRB05KT P6SM FEW040=

USA.gov is the U.S. government's official web portal to all federal, state and local government web resources and services.